Terminal Aerodrome Forecast
Issued by NWS

Home | Current Version | Previous Version | Text Only | Print | Product List | Glossary On
Versions: 1 2 3 4 5 6 7 8 9 10 11 12
000
FTUS45 KPIH 232300
TAFSUN
TAF
KSUN 232327Z 2400/2424 15008KT P6SM BKN150
     FM240300 32009KT P6SM SCT150
     FM241700 14008KT P6SM FEW060
      AMD LTD TO CLD VIS AND WIND 2405/2413=

USA.gov is the U.S. government's official web portal to all federal, state and local government web resources and services.